Time;durP1;ratioP1;P1;durP2;ratioP2;P2;SDS_P1;SDS_P2;PMS_P1;PMS_P2;Temp;Humidity;BMP_temperature;BMP_pressure;BME280_temperature;BME280_humidity;BME280_pressure;Samples;Min_cycle;Max_cycle;Signal;HPM_P1;HPM_P2
2021/09/27 00:01:14;;;;;;;0.10;0.10;;;16.30;99.90;;;;;;4976336;28;20058;-76
2021/09/27 00:03:40;;;;;;;0.10;0.10;;;16.30;99.90;;;;;;4993787;28;20030;-76
2021/09/27 00:06:08;;;;;;;2.17;1.45;;;16.30;99.90;;;;;;4993411;28;20097;-76
2021/09/27 00:08:34;;;;;;;2.08;1.38;;;16.20;99.90;;;;;;4960061;28;20037;-76
2021/09/27 00:11:07;;;;;;;0.05;0.05;;;16.10;99.90;;;;;;4993435;28;20097;-76
2021/09/27 00:13:37;;;;;;;0.20;0.20;;;16.00;99.90;;;;;;4993449;28;20036;-75
2021/09/27 00:16:05;;;;;;;1.88;0.98;;;15.80;99.90;;;;;;4975885;28;20027;-76
2021/09/27 00:18:32;;;;;;;0.63;0.63;;;15.80;99.90;;;;;;4975909;28;20045;-76
2021/09/27 00:21:00;;;;;;;1.30;0.82;;;15.70;99.90;;;;;;4959912;28;20076;-75
2021/09/27 00:23:28;;;;;;;0.50;0.50;;;15.40;99.90;;;;;;4993142;28;20497;-75
2021/09/27 00:25:54;;;;;;;0.90;0.90;;;15.30;99.90;;;;;;4993147;28;20034;-76
2021/09/27 00:28:20;;;;;;;2.22;1.75;;;15.30;99.90;;;;;;4993004;28;20041;-76
2021/09/27 00:30:47;;;;;;;1.13;0.73;;;15.20;99.90;;;;;;4992506;28;20081;-75
2021/09/27 00:33:15;;;;;;;1.00;0.75;;;15.20;99.90;;;;;;4975642;28;20073;-75
2021/09/27 00:35:41;;;;;;;0.57;0.57;;;15.10;99.90;;;;;;4992963;28;20029;-76
2021/09/27 00:38:08;;;;;;;0.05;0.05;;;15.10;99.90;;;;;;4975309;28;20465;-76
2021/09/27 00:40:41;;;;;;;0.00;0.00;;;15.10;99.90;;;;;;4975693;28;20461;-76
2021/09/27 00:43:08;;;;;;;0.22;0.22;;;15.30;99.90;;;;;;4993107;28;20026;-76
2021/09/27 00:45:39;;;;;;;1.75;1.65;;;15.50;99.90;;;;;;4975266;28;20538;-76
2021/09/27 00:48:05;;;;;;;0.93;0.70;;;15.50;99.90;;;;;;4975617;28;20121;-76
2021/09/27 00:50:35;;;;;;;3.30;2.35;;;15.30;99.90;;;;;;4992874;28;20041;-76
2021/09/27 00:53:07;;;;;;;0.45;0.45;;;15.20;99.90;;;;;;4992776;28;20026;-76
2021/09/27 00:55:33;;;;;;;2.38;1.17;;;15.10;99.90;;;;;;4992733;28;20018;-76
2021/09/27 00:57:58;;;;;;;1.95;1.10;;;15.10;99.90;;;;;;4992709;28;20532;-75
2021/09/27 01:00:27;;;;;;;0.32;0.32;;;15.10;99.90;;;;;;4992806;28;20054;-76
2021/09/27 01:02:54;;;;;;;0.10;0.10;;;15.10;99.90;;;;;;4992795;28;20498;-76
2021/09/27 01:05:21;;;;;;;0.57;0.57;;;15.10;99.90;;;;;;4992633;28;20052;-76
2021/09/27 01:08:13;;;;;;;0.25;0.25;;;15.10;99.90;;;;;;4992560;28;20050;-76
2021/09/27 01:11:04;;;;;;;1.77;1.33;;;15.00;99.90;;;;;;4992873;28;20045;-76
2021/09/27 01:14:10;;;;;;;0.47;0.45;;;15.00;99.90;;;;;;4992557;28;20108;-76
2021/09/27 01:16:43;;;;;;;1.35;1.08;;;14.90;99.90;;;;;;4906695;28;20032;-76
2021/09/27 01:19:40;;;;;;;1.25;0.82;;;14.90;99.90;;;;;;4959069;28;20022;-76
2021/09/27 01:22:49;;;;;;;2.45;1.63;;;14.90;99.90;;;;;;4992465;28;20433;-76
2021/09/27 01:25:23;;;;;;;0.75;0.57;;;14.80;99.90;;;;;;4992306;28;20026;-75
2021/09/27 01:28:17;;;;;;;1.45;1.27;;;14.80;99.90;;;;;;4975089;28;20038;-76
2021/09/27 01:30:52;;;;;;;1.23;0.82;;;14.80;99.90;;;;;;4992602;28;20046;-76
2021/09/27 01:33:39;;;;;;;0.88;0.57;;;14.90;99.90;;;;;;4975072;28;20030;-76
2021/09/27 01:36:25;;;;;;;1.42;1.00;;;14.90;99.90;;;;;;4992299;28;20101;-76
2021/09/27 01:39:02;;;;;;;0.10;0.10;;;14.90;99.90;;;;;;4992408;28;20069;-76
2021/09/27 01:41:42;;;;;;;0.20;0.20;;;15.00;99.90;;;;;;4992563;28;20022;-76
2021/09/27 01:44:34;;;;;;;0.28;0.28;;;15.10;99.90;;;;;;4978636;28;20037;-76
2021/09/27 01:47:06;;;;;;;0.13;0.13;;;15.10;99.90;;;;;;4996443;28;20026;-76
2021/09/27 01:49:46;;;;;;;0.20;0.20;;;15.10;99.90;;;;;;4996537;28;20383;-76
2021/09/27 01:52:20;;;;;;;0.60;0.45;;;15.20;99.90;;;;;;4996076;28;20039;-76
2021/09/27 01:54:50;;;;;;;0.10;0.10;;;15.30;99.90;;;;;;4996077;28;20045;-76
2021/09/27 01:57:37;;;;;;;0.10;0.10;;;15.30;99.90;;;;;;4996176;28;20402;-76
2021/09/27 02:00:06;;;;;;;0.00;0.00;;;15.30;99.90;;;;;;4996158;28;20356;-76
2021/09/27 02:02:57;;;;;;;0.00;0.00;;;15.60;99.90;;;;;;4978510;28;20062;-76
2021/09/27 02:05:54;;;;;;;0.40;0.40;;;15.70;99.90;;;;;;4978393;28;20045;-76
2021/09/27 02:08:32;;;;;;;0.00;0.00;;;15.90;99.90;;;;;;4978463;28;20443;-76
2021/09/27 02:11:06;;;;;;;0.00;0.00;;;16.00;99.90;;;;;;4962250;28;20022;-76
2021/09/27 02:13:35;;;;;;;0.10;0.10;;;16.10;99.90;;;;;;4978253;28;20026;-75
2021/09/27 02:16:06;;;;;;;0.10;0.10;;;16.10;99.90;;;;;;4962212;28;20431;-76
2021/09/27 02:18:40;;;;;;;0.10;0.10;;;16.20;99.90;;;;;;4995749;28;20022;-76
2021/09/27 02:21:19;;;;;;;0.10;0.10;;;16.20;99.90;;;;;;4995697;28;20085;-76
2021/09/27 02:24:20;;;;;;;0.10;0.10;;;16.20;99.90;;;;;;4978292;28;20038;-76
2021/09/27 02:26:49;;;;;;;0.10;0.10;;;16.30;99.90;;;;;;4960942;28;20046;-76
2021/09/27 02:29:16;;;;;;;0.10;0.10;;;16.40;99.90;;;;;;4978070;28;20030;-76
2021/09/27 02:31:53;;;;;;;0.10;0.10;;;16.40;99.90;;;;;;4995440;28;20054;-76
2021/09/27 02:34:54;;;;;;;0.10;0.10;;;16.40;99.90;;;;;;4977642;28;20117;-76
2021/09/27 02:37:45;;;;;;;0.10;0.10;;;16.30;99.90;;;;;;4974122;28;20482;-76
2021/09/27 02:40:26;;;;;;;0.10;0.10;;;16.20;99.90;;;;;;4981128;28;20031;-76
2021/09/27 02:42:58;;;;;;;0.10;0.10;;;16.20;99.90;;;;;;4977974;28;20390;-76
2021/09/27 02:45:26;;;;;;;0.10;0.10;;;16.40;99.90;;;;;;4977510;28;20029;-76
2021/09/27 02:47:58;;;;;;;0.10;0.10;;;16.30;99.90;;;;;;4977613;28;20031;-76
2021/09/27 02:50:32;;;;;;;0.35;0.35;;;16.30;99.90;;;;;;4977628;28;20156;-77
2021/09/27 02:52:58;;;;;;;0.10;0.10;;;16.10;99.90;;;;;;4995150;28;20034;-76
2021/09/27 02:55:50;;;;;;;0.10;0.10;;;16.10;99.90;;;;;;4976674;28;20040;-76
2021/09/27 02:58:37;;;;;;;0.20;0.20;;;16.10;99.90;;;;;;4976780;28;20561;-76
2021/09/27 03:01:15;;;;;;;0.10;0.10;;;16.10;99.90;;;;;;4977628;28;20026;-76
2021/09/27 03:03:55;;;;;;;0.10;0.10;;;16.10;99.90;;;;;;4994901;28;20116;-76
2021/09/27 03:06:44;;;;;;;0.10;0.10;;;16.30;99.90;;;;;;4994617;28;20061;-76
2021/09/27 03:09:25;;;;;;;0.05;0.05;;;16.20;99.90;;;;;;4977234;28;20506;-76
2021/09/27 03:12:09;;;;;;;0.10;0.10;;;16.00;99.90;;;;;;4995009;28;20528;-76
2021/09/27 03:15:01;;;;;;;0.40;0.40;;;15.90;99.90;;;;;;4960850;28;20037;-76
2021/09/27 03:17:53;;;;;;;0.10;0.10;;;15.90;99.90;;;;;;4994366;28;20022;-76
2021/09/27 03:20:46;;;;;;;0.03;0.03;;;15.90;99.90;;;;;;4994596;28;20033;-76
2021/09/27 03:23:36;;;;;;;0.00;0.00;;;16.00;99.90;;;;;;4994563;28;20124;-76
2021/09/27 03:26:14;;;;;;;0.32;0.32;;;16.10;99.90;;;;;;4977698;23;20046;-75
2021/09/27 03:28:51;;;;;;;0.10;0.10;;;16.00;99.90;;;;;;5013044;28;20026;-75
2021/09/27 03:31:43;;;;;;;0.13;0.13;;;16.10;99.90;;;;;;4996415;28;20026;-75
2021/09/27 03:34:23;;;;;;;0.00;0.00;;;16.10;99.90;;;;;;4979863;28;20033;-75
2021/09/27 03:37:11;;;;;;;0.10;0.10;;;15.90;99.90;;;;;;5013730;28;20105;-75
2021/09/27 03:40:02;;;;;;;0.10;0.10;;;15.80;99.90;;;;;;5013709;28;20029;-75
2021/09/27 03:42:42;;;;;;;0.10;0.10;;;15.80;99.90;;;;;;4995914;28;20036;-75
2021/09/27 03:45:18;;;;;;;0.00;0.00;;;15.70;99.90;;;;;;5013625;28;20057;-75
2021/09/27 03:48:02;;;;;;;0.10;0.10;;;15.80;99.90;;;;;;5013469;28;20034;-75
2021/09/27 03:50:43;;;;;;;0.10;0.10;;;16.00;99.90;;;;;;5013515;28;20084;-75
2021/09/27 03:53:17;;;;;;;0.00;0.00;;;15.90;99.90;;;;;;4979543;28;20036;-75
2021/09/27 03:55:48;;;;;;;0.10;0.10;;;16.00;99.90;;;;;;4995839;28;20109;-75
2021/09/27 03:58:28;;;;;;;0.10;0.10;;;15.90;99.90;;;;;;5013631;28;20037;-75
2021/09/27 04:01:09;;;;;;;0.00;0.00;;;16.00;99.90;;;;;;4995745;28;20021;-75
2021/09/27 04:04:04;;;;;;;0.10;0.10;;;15.90;99.90;;;;;;5013242;28;20028;-75
2021/09/27 04:06:58;;;;;;;0.93;0.85;;;15.90;99.90;;;;;;4995710;28;20104;-75
2021/09/27 04:09:33;;;;;;;0.00;0.00;;;15.80;99.90;;;;;;4995740;28;20025;-75
2021/09/27 04:12:05;;;;;;;0.30;0.30;;;15.80;99.90;;;;;;4995682;28;20036;-75
2021/09/27 04:14:50;;;;;;;0.10;0.10;;;15.70;99.90;;;;;;4995489;28;20487;-75
2021/09/27 04:17:59;;;;;;;0.10;0.10;;;15.70;99.90;;;;;;5013051;28;20532;-75
2021/09/27 04:20:33;;;;;;;0.10;0.10;;;15.70;99.90;;;;;;4933620;28;20122;-75
2021/09/27 04:23:17;;;;;;;0.10;0.10;;;15.70;99.90;;;;;;4995513;28;20032;-75
2021/09/27 04:25:48;;;;;;;0.10;0.10;;;15.70;99.90;;;;;;4995013;28;20100;-75
2021/09/27 04:28:42;;;;;;;0.10;0.10;;;15.60;99.90;;;;;;4995195;28;20030;-75
2021/09/27 04:31:32;;;;;;;0.10;0.10;;;15.60;99.90;;;;;;4995405;28;20022;-75
2021/09/27 04:34:36;;;;;;;0.10;0.10;;;15.70;99.90;;;;;;5012681;28;20026;-75
2021/09/27 04:37:03;;;;;;;0.35;0.35;;;15.70;99.90;;;;;;4995266;28;20423;-75
2021/09/27 04:39:36;;;;;;;0.10;0.10;;;15.70;99.90;;;;;;5012719;28;20100;-75
2021/09/27 04:42:36;;;;;;;0.10;0.10;;;15.70;99.90;;;;;;4979156;28;20056;-75
2021/09/27 04:45:31;;;;;;;0.10;0.10;;;15.70;99.90;;;;;;4978727;28;20052;-75
2021/09/27 04:48:34;;;;;;;0.10;0.10;;;15.60;99.90;;;;;;5012402;28;20018;-75
2021/09/27 04:51:37;;;;;;;0.10;0.10;;;15.50;99.90;;;;;;5012823;28;20390;-75
2021/09/27 04:54:39;;;;;;;0.10;0.10;;;15.40;99.90;;;;;;4994935;28;20036;-75
2021/09/27 04:57:14;;;;;;;0.10;0.10;;;15.40;99.90;;;;;;5012004;28;20080;-75
2021/09/27 05:00:04;;;;;;;0.10;0.10;;;15.40;99.90;;;;;;5012310;28;20029;-75
2021/09/27 05:02:38;;;;;;;0.10;0.10;;;15.30;99.90;;;;;;5012109;28;20026;-75
2021/09/27 05:05:28;;;;;;;0.10;0.10;;;15.40;99.90;;;;;;4994625;28;20033;-75
2021/09/27 05:08:19;;;;;;;0.10;0.10;;;15.40;99.90;;;;;;5012189;28;20038;-75
2021/09/27 05:11:03;;;;;;;0.10;0.10;;;15.40;99.90;;;;;;4994726;28;20049;-73
2021/09/27 05:13:51;;;;;;;0.65;0.32;;;15.50;99.90;;;;;;5012131;28;20033;-75
2021/09/27 05:16:49;;;;;;;0.10;0.10;;;15.40;99.90;;;;;;5012038;28;20100;-75
2021/09/27 05:20:00;;;;;;;0.20;0.20;;;15.20;99.90;;;;;;5012560;28;20021;-75
2021/09/27 05:22:47;;;;;;;0.10;0.10;;;15.10;99.90;;;;;;5012109;28;20022;-75
2021/09/27 05:25:38;;;;;;;0.08;0.08;;;15.10;99.90;;;;;;4994602;28;20021;-75
2021/09/27 05:28:20;;;;;;;0.10;0.10;;;15.10;99.90;;;;;;4994513;28;20076;-75
2021/09/27 05:30:51;;;;;;;;;;;15.00;99.90;;;;;;4994835;28;20421;-75
2021/09/27 05:33:44;;;;;;;0.10;0.10;;;15.00;99.90;;;;;;5011860;28;19971;-74
2021/09/27 05:36:15;;;;;;;0.10;0.10;;;15.10;99.90;;;;;;4994488;28;20022;-74
2021/09/27 05:38:44;;;;;;;1.77;1.30;;;15.30;99.90;;;;;;5011884;28;20088;-74
2021/09/27 05:41:21;;;;;;;0.10;0.10;;;15.30;99.90;;;;;;5011850;28;20481;-75
2021/09/27 05:44:14;;;;;;;0.10;0.10;;;15.40;99.90;;;;;;4978138;28;20064;-75
2021/09/27 05:47:00;;;;;;;0.10;0.10;;;15.40;99.90;;;;;;5011839;28;20489;-75
2021/09/27 05:49:37;;;;;;;0.20;0.20;;;15.40;99.90;;;;;;4994289;28;20041;-75
2021/09/27 05:52:11;;;;;;;0.40;0.40;;;15.30;99.90;;;;;;5011915;28;20029;-75
2021/09/27 05:54:54;;;;;;;0.32;0.32;;;15.30;99.90;;;;;;5011698;28;20172;-76
2021/09/27 05:57:42;;;;;;;0.10;0.10;;;15.30;99.90;;;;;;4977942;28;20026;-76
2021/09/27 06:00:24;;;;;;;0.00;0.00;;;15.20;99.90;;;;;;5011814;28;20029;-75
2021/09/27 06:02:57;;;;;;;0.08;0.08;;;15.20;99.90;;;;;;4994208;28;20101;-76
2021/09/27 06:05:31;;;;;;;0.00;0.00;;;15.40;99.90;;;;;;5011691;28;20033;-75
2021/09/27 06:08:23;;;;;;;0.63;0.63;;;15.50;99.90;;;;;;4993911;28;20041;-75
2021/09/27 06:11:14;;;;;;;0.20;0.20;;;15.60;99.90;;;;;;5011646;28;20018;-75
2021/09/27 06:13:46;;;;;;;2.45;0.57;;;15.60;99.90;;;;;;5011631;28;20029;-75
2021/09/27 06:16:32;;;;;;;0.10;0.10;;;15.50;99.90;;;;;;5011533;28;20470;-75
2021/09/27 06:19:10;;;;;;;0.00;0.00;;;15.50;99.90;;;;;;5011459;28;20076;-75
2021/09/27 06:22:01;;;;;;;0.10;0.10;;;15.70;99.90;;;;;;5011534;28;20096;-75
2021/09/27 06:24:44;;;;;;;0.43;0.43;;;15.90;99.90;;;;;;4993703;28;20049;-75
2021/09/27 06:27:48;;;;;;;0.30;0.30;;;15.90;99.90;;;;;;4993533;28;20033;-75
2021/09/27 06:30:19;;;;;;;0.47;0.20;;;16.10;99.90;;;;;;4979857;28;20026;-75
2021/09/27 06:33:00;;;;;;;0.10;0.10;;;16.00;99.90;;;;;;5014905;28;20101;-75
2021/09/27 06:35:30;;;;;;;0.82;0.82;;;16.00;99.90;;;;;;5014750;28;20104;-75
2021/09/27 06:38:00;;;;;;;0.28;0.28;;;15.90;99.90;;;;;;5013524;28;20026;-75
2021/09/27 06:40:27;;;;;;;0.35;0.35;;;15.80;99.90;;;;;;5013003;28;20499;-75
2021/09/27 06:42:52;;;;;;;0.20;0.20;;;15.90;99.90;;;;;;4994922;28;20080;-75
2021/09/27 06:45:18;;;;;;;0.20;0.20;;;16.00;99.90;;;;;;4995411;28;20481;-75
2021/09/27 06:47:44;;;;;;;0.43;0.43;;;16.00;99.90;;;;;;5012753;28;20033;-75
2021/09/27 06:50:11;;;;;;;0.10;0.10;;;16.00;99.90;;;;;;4997069;28;20026;-76
2021/09/27 06:52:37;;;;;;;1.08;0.52;;;16.10;99.90;;;;;;5014592;28;20022;-74
2021/09/27 06:55:04;;;;;;;0.10;0.10;;;16.20;99.90;;;;;;5014939;28;20091;-76
2021/09/27 06:57:30;;;;;;;0.30;0.25;;;16.10;99.90;;;;;;4981457;28;20440;-76
2021/09/27 06:59:56;;;;;;;0.63;0.63;;;16.10;99.90;;;;;;5014371;28;20100;-76
2021/09/27 07:02:21;;;;;;;0.10;0.10;;;16.20;99.90;;;;;;5014794;28;20018;-76
2021/09/27 07:04:47;;;;;;;0.65;0.65;;;16.30;99.90;;;;;;5014156;28;20501;-76
2021/09/27 07:07:13;;;;;;;1.65;1.27;;;16.40;99.90;;;;;;4980334;28;20041;-76
2021/09/27 07:09:39;;;;;;;0.57;0.57;;;16.20;99.90;;;;;;4996503;28;20029;-76
2021/09/27 07:12:06;;;;;;;0.10;0.10;;;16.30;99.90;;;;;;5014244;28;20026;-75
2021/09/27 07:14:32;;;;;;;0.15;0.15;;;16.20;99.90;;;;;;4996158;28;20437;-75
2021/09/27 07:16:58;;;;;;;0.10;0.10;;;16.30;99.90;;;;;;5014158;28;20029;-76
2021/09/27 07:19:23;;;;;;;0.20;0.20;;;16.40;99.90;;;;;;5013932;28;20076;-74
2021/09/27 07:21:49;;;;;;;0.13;0.13;;;16.50;99.90;;;;;;5014331;28;20026;-76
2021/09/27 07:24:15;;;;;;;0.10;0.10;;;16.70;99.90;;;;;;5013954;28;20022;-76
2021/09/27 07:26:42;;;;;;;0.10;0.10;;;16.60;99.90;;;;;;4980057;28;20113;-76
2021/09/27 07:29:08;;;;;;;0.00;0.00;;;16.80;99.90;;;;;;4996282;28;20026;-76
2021/09/27 07:31:35;;;;;;;2.17;0.75;;;16.80;99.90;;;;;;5013866;28;20033;-76
2021/09/27 07:34:03;;;;;;;0.10;0.10;;;16.90;99.90;;;;;;4996029;28;20030;-76
2021/09/27 07:36:29;;;;;;;0.10;0.10;;;16.90;99.90;;;;;;5013675;28;20018;-75
2021/09/27 07:38:55;;;;;;;2.45;1.15;;;16.90;99.90;;;;;;4996758;28;20481;-75
2021/09/27 07:41:22;;;;;;;0.20;0.20;;;16.90;99.90;;;;;;5013175;28;20018;-75
2021/09/27 07:43:48;;;;;;;0.10;0.10;;;17.00;99.90;;;;;;4995245;28;20060;-76
2021/09/27 07:46:18;;;;;;;0.10;0.10;;;17.00;99.90;;;;;;5013041;28;20074;-75
2021/09/27 07:48:45;;;;;;;0.60;0.60;;;17.20;99.90;;;;;;4995868;28;20057;-76
2021/09/27 07:51:12;;;;;;;0.35;0.35;;;17.10;99.90;;;;;;5013288;28;20104;-75
2021/09/27 07:53:37;;;;;;;0.10;0.10;;;17.20;99.90;;;;;;5013273;28;20022;-76
2021/09/27 07:56:03;;;;;;;0.10;0.10;;;17.30;99.90;;;;;;4995762;28;20032;-76
2021/09/27 07:58:30;;;;;;;0.93;0.93;;;17.40;99.90;;;;;;5013231;28;20026;-77
2021/09/27 08:00:55;;;;;;;0.10;0.10;;;17.40;99.90;;;;;;5013254;28;20026;-76
2021/09/27 08:03:22;;;;;;;0.20;0.20;;;17.40;99.90;;;;;;5011393;28;20021;-76
2021/09/27 08:05:48;;;;;;;0.00;0.00;;;17.40;99.90;;;;;;4995177;28;20033;-76
2021/09/27 08:08:14;;;;;;;0.10;0.10;;;17.40;99.90;;;;;;4995396;28;20045;-76
2021/09/27 08:10:40;;;;;;;0.10;0.10;;;17.60;99.90;;;;;;5013038;28;20425;-76
2021/09/27 08:13:07;;;;;;;0.13;0.13;;;17.60;99.90;;;;;;5012780;28;20030;-76
2021/09/27 08:15:37;;;;;;;0.10;0.10;;;17.60;99.90;;;;;;4995294;28;20040;-76
2021/09/27 08:18:06;;;;;;;0.10;0.10;;;17.80;99.90;;;;;;4995260;28;20445;-76
2021/09/27 08:20:45;;;;;;;0.10;0.10;;;17.80;99.90;;;;;;5013052;28;20026;-76
2021/09/27 08:23:12;;;;;;;0.10;0.10;;;18.00;99.90;;;;;;5013035;28;20022;-76
2021/09/27 08:25:38;;;;;;;0.20;0.20;;;18.10;99.90;;;;;;5012979;28;20022;-76
2021/09/27 08:28:06;;;;;;;0.63;0.63;;;18.20;99.90;;;;;;4978625;28;20517;-76
2021/09/27 08:30:39;;;;;;;0.10;0.10;;;18.40;99.90;;;;;;4995174;28;20026;-76
2021/09/27 08:33:05;;;;;;;0.40;0.40;;;18.40;99.90;;;;;;5012775;28;20452;-76
2021/09/27 08:35:32;;;;;;;0.10;0.10;;;18.40;99.90;;;;;;4978863;28;20032;-76
2021/09/27 08:38:00;;;;;;;0.10;0.10;;;18.50;99.90;;;;;;4994941;28;20022;-75
2021/09/27 08:40:32;;;;;;;0.10;0.10;;;18.80;99.90;;;;;;5012501;28;20042;-76
2021/09/27 08:43:02;;;;;;;0.30;0.30;;;18.90;99.90;;;;;;4978670;28;20018;-76
2021/09/27 08:45:30;;;;;;;0.10;0.10;;;19.00;99.90;;;;;;4995151;28;20097;-76
2021/09/27 08:48:30;;;;;;;0.10;0.10;;;18.90;99.90;;;;;;4994680;28;20029;-76
2021/09/27 08:50:56;;;;;;;0.30;0.30;;;19.10;99.90;;;;;;4995162;28;20110;-76
2021/09/27 08:53:28;;;;;;;0.10;0.10;;;19.20;99.90;;;;;;4994146;28;20121;-76
2021/09/27 08:56:10;;;;;;;0.43;0.43;;;19.30;99.90;;;;;;5012345;28;20018;-76
2021/09/27 08:59:05;;;;;;;1.02;1.00;;;19.50;99.90;;;;;;4994764;28;20033;-76
2021/09/27 09:01:36;;;;;;;0.10;0.10;;;19.80;99.90;;;;;;5012401;28;20033;-76
2021/09/27 09:04:25;;;;;;;0.10;0.10;;;20.10;99.90;;;;;;4994727;28;20030;-76
2021/09/27 09:06:56;;;;;;;0.10;0.10;;;20.50;99.90;;;;;;4994820;28;20053;-76
2021/09/27 09:09:36;;;;;;;0.68;0.55;;;20.70;99.90;;;;;;4994903;28;20021;-76
2021/09/27 09:12:18;;;;;;;0.10;0.10;;;20.60;99.90;;;;;;4994210;28;20501;-76
2021/09/27 09:15:08;;;;;;;0.10;0.10;;;20.40;99.90;;;;;;5011992;28;20560;-76
2021/09/27 09:17:42;;;;;;;0.38;0.38;;;21.10;99.90;;;;;;5012023;28;20022;-76
2021/09/27 09:20:25;;;;;;;0.30;0.30;;;21.40;99.90;;;;;;4994606;28;20030;-76
2021/09/27 09:22:52;;;;;;;1.23;1.23;;;21.60;99.80;;;;;;5011946;28;20029;-76
2021/09/27 09:25:30;;;;;;;0.10;0.10;;;21.70;99.20;;;;;;4994355;28;20029;-76
2021/09/27 09:27:57;;;;;;;0.05;0.05;;;22.40;97.80;;;;;;5026470;23;20073;-75
2021/09/27 09:30:34;;;;;;;3.03;1.65;;;22.90;95.20;;;;;;4994055;28;20029;-74
2021/09/27 09:33:00;;;;;;;1.92;1.55;;;22.80;91.70;;;;;;5011829;28;20026;-73
2021/09/27 09:35:29;;;;;;;2.58;1.58;;;22.90;90.60;;;;;;5011688;28;20030;-74
2021/09/27 09:38:03;;;;;;;3.53;0.57;;;23.00;90.30;;;;;;5011588;28;20038;-74
2021/09/27 09:40:41;;;;;;;1.50;0.35;;;22.90;89.70;;;;;;4994114;28;20032;-74
2021/09/27 09:43:11;;;;;;;0.25;0.25;;;23.40;89.50;;;;;;5011700;28;20022;-73
2021/09/27 09:45:43;;;;;;;0.60;0.60;;;23.70;86.60;;;;;;5011672;28;20129;-74
2021/09/27 09:48:23;;;;;;;0.32;0.32;;;23.60;84.20;;;;;;4994011;28;20033;-74
2021/09/27 09:50:51;;;;;;;0.73;0.73;;;23.10;85.30;;;;;;4993922;28;20435;-75
2021/09/27 09:53:36;;;;;;;1.20;1.13;;;22.80;87.10;;;;;;5011453;28;20028;-73
2021/09/27 09:56:11;;;;;;;0.25;0.25;;;23.40;87.90;;;;;;4994022;28;20366;-74
2021/09/27 09:58:42;;;;;;;2.38;0.50;;;24.10;82.30;;;;;;4994071;28;20026;-74
2021/09/27 10:01:43;;;;;;;0.35;0.35;;;24.50;80.30;;;;;;5011529;28;20033;-73
2021/09/27 10:04:21;;;;;;;0.55;0.55;;;24.90;75.20;;;;;;4994159;28;20038;-74
2021/09/27 10:06:57;;;;;;;0.08;0.05;;;24.90;73.50;;;;;;5011017;28;20449;-74
2021/09/27 10:09:38;;;;;;;0.98;0.90;;;25.20;73.20;;;;;;5004235;28;20038;-74
2021/09/27 10:12:12;;;;;;;0.00;0.00;;;25.50;70.20;;;;;;4995562;28;20026;-73
2021/09/27 10:14:44;;;;;;;1.08;0.75;;;25.90;69.70;;;;;;5013927;28;20038;-74
2021/09/27 10:17:14;;;;;;;0.10;0.10;;;25.80;67.20;;;;;;4997514;28;20246;-73
2021/09/27 10:20:10;;;;;;;0.35;0.28;;;25.80;66.90;;;;;;4997360;28;20508;-73
2021/09/27 10:22:39;;;;;;;0.10;0.10;;;26.10;66.80;;;;;;5000562;28;20505;-74
2021/09/27 10:25:34;;;;;;;0.00;0.00;;;26.30;65.60;;;;;;4995298;28;20470;-74
2021/09/27 10:28:01;;;;;;;1.65;1.55;;;26.80;67.50;;;;;;4995235;28;20035;-74
2021/09/27 10:30:40;;;;;;;1.25;0.25;;;26.70;65.90;;;;;;4995420;28;20389;-74
2021/09/27 10:33:23;;;;;;;0.20;0.20;;;26.80;65.80;;;;;;4977653;28;20033;-74
2021/09/27 10:36:08;;;;;;;1.02;0.93;;;27.30;64.20;;;;;;4961115;28;20077;-74
2021/09/27 10:38:46;;;;;;;0.45;0.45;;;27.90;61.50;;;;;;5000344;28;20018;-73
2021/09/27 10:41:35;;;;;;;0.30;0.25;;;27.50;61.10;;;;;;5014213;28;20021;-73
2021/09/27 10:44:08;;;;;;;0.85;0.85;;;26.80;63.30;;;;;;5014412;28;20450;-73
2021/09/27 10:46:39;;;;;;;0.05;0.05;;;26.80;64.40;;;;;;4996716;28;20040;-74
2021/09/27 10:49:14;;;;;;;0.00;0.00;;;26.30;62.90;;;;;;5014260;28;20490;-74
2021/09/27 10:51:41;;;;;;;1.23;1.10;;;25.40;67.70;;;;;;5014448;28;20022;-74
2021/09/27 10:54:39;;;;;;;0.45;0.40;;;25.00;67.00;;;;;;4996446;28;20445;-73
2021/09/27 10:57:15;;;;;;;2.63;0.55;;;25.60;68.10;;;;;;4996767;28;20014;-73
2021/09/27 10:59:53;;;;;;;0.38;0.38;;;26.50;64.50;;;;;;4996536;28;20172;-73
2021/09/27 11:02:46;;;;;;;0.13;0.13;;;25.60;64.60;;;;;;5014245;28;20017;-73
2021/09/27 11:05:50;;;;;;;2.17;1.15;;;24.90;65.00;;;;;;5013917;28;20022;-73
2021/09/27 11:08:47;;;;;;;0.00;0.00;;;24.50;68.60;;;;;;5010348;28;20034;-73
2021/09/27 11:11:36;;;;;;;0.00;0.00;;;25.10;68.00;;;;;;5014148;28;20021;-74
2021/09/27 11:14:40;;;;;;;0.20;0.20;;;25.20;65.50;;;;;;4997577;28;20513;-73
2021/09/27 11:17:05;;;;;;;0.10;0.10;;;24.30;67.80;;;;;;4994055;28;20073;-74
2021/09/27 11:19:37;;;;;;;0.38;0.38;;;24.00;69.80;;;;;;4994370;28;20449;-74
2021/09/27 11:22:29;;;;;;;;;;;23.60;73.00;;;;;;4977285;28;20022;-74
2021/09/27 11:25:28;;;;;;;0.17;0.17;;;23.40;73.40;;;;;;4991016;28;19906;-73
2021/09/27 11:28:25;;;;;;;2.92;0.90;;;24.20;71.60;;;;;;4960418;28;20129;-73
2021/09/27 11:31:26;;;;;;;0.00;0.00;;;24.90;68.90;;;;;;4976579;28;20505;-74
2021/09/27 11:33:57;;;;;;;0.00;0.00;;;26.10;66.60;;;;;;4952127;28;20449;-74
2021/09/27 11:36:49;;;;;;;1.58;1.48;;;26.70;65.50;;;;;;4993782;28;20026;-74
2021/09/27 11:39:16;;;;;;;0.75;0.40;;;27.20;61.50;;;;;;4976481;28;20117;-73
2021/09/27 11:42:07;;;;;;;3.45;2.17;;;27.10;59.40;;;;;;4993871;28;20026;-74
2021/09/27 11:44:34;;;;;;;1.17;0.80;;;26.90;58.00;;;;;;4993666;28;20026;-74
2021/09/27 11:47:08;;;;;;;6.13;5.57;;;27.10;59.50;;;;;;4975076;28;20536;-74
2021/09/27 11:50:07;;;;;;;0.32;0.32;;;27.60;58.70;;;;;;4963590;28;20517;-74
2021/09/27 11:52:50;;;;;;;0.13;0.13;;;27.90;58.10;;;;;;4976822;28;20027;-74
2021/09/27 11:55:44;;;;;;;0.22;0.10;;;27.20;56.60;;;;;;5009777;28;20026;-74
2021/09/27 11:58:23;;;;;;;1.27;1.10;;;26.60;58.50;;;;;;5010200;28;20343;-75
2021/09/27 12:00:54;;;;;;;0.20;0.20;;;26.40;58.00;;;;;;5013124;28;20084;-75
2021/09/27 12:03:35;;;;;;;0.20;0.20;;;26.30;58.50;;;;;;4995536;28;20466;-74
2021/09/27 12:06:03;;;;;;;4.82;2.08;;;26.40;59.00;;;;;;4994181;28;20432;-75
2021/09/27 12:08:34;;;;;;;0.80;0.80;;;26.60;58.90;;;;;;4993175;28;20029;-75
2021/09/27 12:11:07;;;;;;;0.00;0.00;;;27.50;57.60;;;;;;4976049;28;20066;-75
2021/09/27 12:13:45;;;;;;;0.00;0.00;;;27.80;55.60;;;;;;4975742;28;20502;-75
2021/09/27 12:16:25;;;;;;;1.00;0.43;;;27.50;56.60;;;;;;4993101;28;20022;-75
2021/09/27 12:19:22;;;;;;;0.30;0.30;;;27.50;57.20;;;;;;4993110;28;20113;-75
2021/09/27 12:21:53;;;;;;;0.10;0.10;;;27.40;56.80;;;;;;4975283;28;20026;-75
2021/09/27 12:24:30;;;;;;;0.10;0.10;;;27.20;58.40;;;;;;5002877;28;20528;-74
2021/09/27 12:27:13;;;;;;;0.70;0.70;;;26.70;59.40;;;;;;4993121;28;20466;-74
2021/09/27 12:30:03;;;;;;;0.00;0.00;;;26.60;62.00;;;;;;4993106;28;20029;-74
2021/09/27 12:32:31;;;;;;;0.07;0.07;;;26.00;63.10;;;;;;4980126;28;20030;-75
2021/09/27 12:35:01;;;;;;;0.10;0.10;;;25.80;63.40;;;;;;5012561;28;20284;-74
2021/09/27 12:37:37;;;;;;;0.35;0.35;;;25.90;62.50;;;;;;4994821;28;20482;-74
2021/09/27 12:40:11;;;;;;;0.57;0.47;;;26.20;60.00;;;;;;5012364;28;20021;-74
2021/09/27 12:42:42;;;;;;;0.52;0.22;;;26.10;58.90;;;;;;5012402;28;20034;-75
2021/09/27 12:45:32;;;;;;;0.75;0.75;;;26.20;58.60;;;;;;4994689;28;20030;-74
2021/09/27 12:48:04;;;;;;;10.23;2.83;;;26.10;58.00;;;;;;4994869;28;20065;-74
2021/09/27 12:50:31;;;;;;;0.45;0.32;;;26.20;59.60;;;;;;4994410;28;20080;-74
2021/09/27 12:53:04;;;;;;;0.80;0.17;;;26.00;58.50;;;;;;4975033;28;20033;-74
2021/09/27 12:55:41;;;;;;;0.30;0.30;;;26.00;58.50;;;;;;4961240;28;20035;-74
2021/09/27 12:58:23;;;;;;;0.20;0.20;;;25.80;59.40;;;;;;5012383;28;20107;-74
2021/09/27 13:00:50;;;;;;;0.75;0.25;;;25.50;60.40;;;;;;4985177;28;20027;-74
2021/09/27 13:03:21;;;;;;;0.10;0.10;;;25.20;62.10;;;;;;4992039;28;20442;-74
2021/09/27 13:05:50;;;;;;;0.98;0.70;;;25.50;61.70;;;;;;4958815;28;20026;-75
2021/09/27 13:08:25;;;;;;;0.28;0.28;;;25.40;60.30;;;;;;4959514;28;20454;-73
2021/09/27 13:10:58;;;;;;;1.25;0.68;;;25.20;61.60;;;;;;4978069;28;20485;-73
2021/09/27 13:13:34;;;;;;;0.40;0.40;;;25.20;60.20;;;;;;4994340;28;20064;-74
2021/09/27 13:16:15;;;;;;;3.53;1.85;;;25.10;61.50;;;;;;5011804;28;20370;-74
2021/09/27 13:18:45;;;;;;;0.03;0.03;;;25.30;61.70;;;;;;4978060;28;20397;-74
2021/09/27 13:21:25;;;;;;;0.00;0.00;;;24.80;61.00;;;;;;4994301;28;20030;-74
2021/09/27 13:23:58;;;;;;;2.80;2.00;;;24.90;61.70;;;;;;4977501;28;20045;-74
2021/09/27 13:26:38;;;;;;;0.10;0.10;;;24.90;59.90;;;;;;5001737;28;20036;-74
2021/09/27 13:29:42;;;;;;;2.75;1.35;;;25.00;61.80;;;;;;4992052;28;20678;-74
2021/09/27 13:32:17;;;;;;;0.98;0.50;;;24.70;64.10;;;;;;4975096;28;20026;-74
2021/09/27 13:35:04;;;;;;;2.55;1.50;;;24.20;63.10;;;;;;4974699;28;20347;-73
2021/09/27 13:37:50;;;;;;;1.02;0.90;;;23.70;64.40;;;;;;4990093;28;20068;-74
2021/09/27 13:40:26;;;;;;;1.23;1.10;;;23.10;67.00;;;;;;4982242;28;20549;-74
2021/09/27 13:43:16;;;;;;;0.08;0.08;;;23.10;67.50;;;;;;5013800;28;20381;-74